createdAt,value
2018-04-18T00:01:22.670Z,21.53
2018-04-18T00:03:51.040Z,20.73
2018-04-18T00:06:18.513Z,21.47
2018-04-18T00:08:46.006Z,21.00
2018-04-18T00:11:13.515Z,21.40
2018-04-18T00:13:41.017Z,23.00
2018-04-18T00:16:08.979Z,21.43
2018-04-18T00:18:36.465Z,21.60
2018-04-18T00:21:03.956Z,22.30
2018-04-18T00:23:31.485Z,22.77
2018-04-18T00:25:58.973Z,22.23
2018-04-18T00:28:26.511Z,22.70
2018-04-18T00:30:54.026Z,23.10
2018-04-18T00:33:21.526Z,21.90
2018-04-18T00:35:49.030Z,21.80
2018-04-18T00:38:16.510Z,22.77
2018-04-18T00:40:43.994Z,22.43
2018-04-18T00:43:11.584Z,24.93
2018-04-18T00:45:39.240Z,23.37
2018-04-18T00:48:06.729Z,23.23
2018-04-18T00:50:34.682Z,22.27
2018-04-18T00:53:02.170Z,23.00
2018-04-18T00:55:29.647Z,21.57
2018-04-18T00:57:57.139Z,23.47
2018-04-18T01:00:24.649Z,22.30
2018-04-18T01:02:52.115Z,22.57
2018-04-18T01:05:19.630Z,23.00
2018-04-18T01:07:47.139Z,23.83
2018-04-18T01:10:14.687Z,22.23
2018-04-18T01:12:42.172Z,22.90
2018-04-18T01:15:09.662Z,23.70
2018-04-18T01:17:37.189Z,23.50
2018-04-18T01:20:04.683Z,24.20
2018-04-18T01:22:32.169Z,23.10
2018-04-18T01:24:59.689Z,24.53
2018-04-18T01:27:27.206Z,22.90
2018-04-18T01:29:54.689Z,22.50
2018-04-18T01:32:22.196Z,24.30
2018-04-18T01:34:49.673Z,22.60
2018-04-18T01:37:17.158Z,23.80
2018-04-18T01:39:44.634Z,25.77
2018-04-18T01:42:12.142Z,23.07
2018-04-18T01:44:39.614Z,24.77
2018-04-18T01:47:07.114Z,24.27
2018-04-18T01:49:34.605Z,24.07
2018-04-18T01:52:02.083Z,23.10
2018-04-18T01:54:29.581Z,22.90
2018-04-18T01:56:57.106Z,22.87
2018-04-18T01:59:24.698Z,24.07
2018-04-18T02:01:52.163Z,23.60
2018-04-18T02:04:19.639Z,24.07
2018-04-18T02:06:47.131Z,23.77
2018-04-18T02:09:14.631Z,24.33
2018-04-18T02:11:42.180Z,24.20
2018-04-18T02:14:09.667Z,24.87
2018-04-18T02:16:37.168Z,24.53
2018-04-18T02:19:04.661Z,25.23
2018-04-18T02:21:32.143Z,24.57
2018-04-18T02:23:59.657Z,23.13
2018-04-18T02:26:27.126Z,23.73
2018-04-18T02:28:54.600Z,24.00
2018-04-18T02:31:22.107Z,25.00
2018-04-18T02:33:49.581Z,25.30
2018-04-18T02:36:17.079Z,25.10
2018-04-18T02:38:44.545Z,26.53
2018-04-18T02:41:12.020Z,25.60
2018-04-18T02:43:39.498Z,26.17
2018-04-18T02:46:06.993Z,26.67
2018-04-18T02:48:34.460Z,25.00
2018-04-18T02:51:01.957Z,26.70
2018-04-18T02:53:29.422Z,26.60
2018-04-18T02:55:56.933Z,24.53
2018-04-18T02:58:24.426Z,25.60
2018-04-18T03:00:51.922Z,26.67
2018-04-18T03:03:19.451Z,26.67
2018-04-18T03:05:47.686Z,27.60
2018-04-18T03:08:15.142Z,26.00
2018-04-18T03:10:42.616Z,25.73
2018-04-18T03:13:10.082Z,25.90
2018-04-18T03:15:37.579Z,27.50
2018-04-18T03:18:05.049Z,25.80
2018-04-18T03:20:32.909Z,27.60
2018-04-18T03:23:00.473Z,25.80
2018-04-18T03:25:27.926Z,27.03
2018-04-18T03:27:55.442Z,25.87
2018-04-18T03:30:23.401Z,26.73
2018-04-18T03:32:50.874Z,27.10
2018-04-18T03:35:18.351Z,26.10
2018-04-18T03:37:45.858Z,26.40
2018-04-18T03:40:13.322Z,26.30
2018-04-18T03:42:41.025Z,27.60
2018-04-18T03:45:08.511Z,25.60
2018-04-18T03:47:36.008Z,26.17
2018-04-18T03:50:03.501Z,26.10
2018-04-18T03:52:30.985Z,25.47
2018-04-18T03:54:58.457Z,26.90
2018-04-18T03:57:25.928Z,25.80
2018-04-18T03:59:53.397Z,26.97
2018-04-18T04:02:20.880Z,27.10
2018-04-18T04:04:48.427Z,27.30
2018-04-18T04:09:49.569Z,25.60
2018-04-18T04:12:17.034Z,26.50
2018-04-18T04:14:44.539Z,25.50
2018-04-18T04:17:23.793Z,26.40
2018-04-18T04:20:03.113Z,26.47
2018-04-18T04:22:42.434Z,25.83
2018-04-18T04:25:09.906Z,25.40
2018-04-18T04:27:37.364Z,24.33
2018-04-18T04:30:05.718Z,26.50
2018-04-18T04:32:33.169Z,25.70
2018-04-18T04:35:00.658Z,23.10
2018-04-18T04:37:28.130Z,24.37
2018-04-18T04:39:55.908Z,25.00
2018-04-18T04:42:23.418Z,26.50
2018-04-18T04:44:50.914Z,26.23
2018-04-18T04:47:18.385Z,27.77
2018-04-18T04:49:45.880Z,24.80
2018-04-18T04:52:13.349Z,24.57
2018-04-18T04:54:40.812Z,25.40
2018-04-18T04:57:08.283Z,25.90
2018-04-18T04:59:35.756Z,26.20
2018-04-18T05:02:03.205Z,25.17
2018-04-18T05:04:30.764Z,24.63
2018-04-18T05:06:59.289Z,25.40
2018-04-18T05:09:26.825Z,26.57
2018-04-18T05:11:54.311Z,25.50
2018-04-18T05:14:21.803Z,24.33
2018-04-18T05:16:49.277Z,26.33
2018-04-18T05:19:16.778Z,25.10
2018-04-18T05:21:44.242Z,25.23
2018-04-18T05:24:11.731Z,24.13
2018-04-18T05:26:39.184Z,25.67
2018-04-18T05:29:06.658Z,26.00
2018-04-18T05:31:34.126Z,25.80
2018-04-18T05:34:01.604Z,25.83
2018-04-18T05:36:29.092Z,24.90
2018-04-18T05:38:56.578Z,25.37
2018-04-18T05:41:24.095Z,26.50
2018-04-18T05:43:51.578Z,25.53
2018-04-18T05:46:19.076Z,26.40
2018-04-18T05:48:46.555Z,26.43
2018-04-18T05:51:14.050Z,25.83
2018-04-18T05:53:41.522Z,26.40
2018-04-18T05:56:09.012Z,28.10
2018-04-18T05:58:36.539Z,26.60
2018-04-18T06:01:04.097Z,28.00
2018-04-18T06:03:31.574Z,26.90
2018-04-18T06:05:59.030Z,26.70
2018-04-18T06:08:26.501Z,24.80
2018-04-18T06:10:54.035Z,26.93
2018-04-18T06:13:21.503Z,25.87
2018-04-18T06:15:48.992Z,25.13
2018-04-18T06:18:16.469Z,26.60
2018-04-18T06:20:44.037Z,25.73
2018-04-18T06:23:11.531Z,25.80
2018-04-18T06:25:38.295Z,26.53
2018-04-18T06:28:05.964Z,27.50
2018-04-18T06:30:33.499Z,26.07
2018-04-18T06:33:01.013Z,24.33
2018-04-18T06:35:28.488Z,23.80
2018-04-18T06:37:56.151Z,23.77
2018-04-18T06:40:23.638Z,24.97
2018-04-18T06:42:51.846Z,24.70
2018-04-18T06:45:19.321Z,23.47
2018-04-18T06:47:46.819Z,26.20
2018-04-18T06:50:14.376Z,23.10
2018-04-18T06:52:41.853Z,23.57
2018-04-18T06:55:09.351Z,24.23
2018-04-18T06:57:36.878Z,25.30
2018-04-18T07:00:04.375Z,24.47
2018-04-18T07:02:31.856Z,24.67
2018-04-18T07:04:59.340Z,23.50
2018-04-18T07:07:26.804Z,23.63
2018-04-18T07:09:54.341Z,24.50
2018-04-18T07:12:21.815Z,24.53
2018-04-18T07:14:49.314Z,23.47
2018-04-18T07:17:16.807Z,24.13
2018-04-18T07:19:44.293Z,22.83
2018-04-18T07:22:12.189Z,25.47
2018-04-18T07:24:39.689Z,22.37
2018-04-18T07:27:07.158Z,23.43
2018-04-18T07:29:34.657Z,22.90
2018-04-18T07:32:02.186Z,22.80
2018-04-18T07:34:29.698Z,23.30
2018-04-18T07:36:57.194Z,22.70
2018-04-18T07:39:24.676Z,22.27
2018-04-18T07:41:52.145Z,24.73
2018-04-18T07:44:19.631Z,23.83
2018-04-18T07:46:47.118Z,24.90
2018-04-18T07:49:14.603Z,23.13
2018-04-18T07:51:42.106Z,23.03
2018-04-18T07:54:09.620Z,23.57
2018-04-18T07:56:37.123Z,24.80
2018-04-18T07:59:04.590Z,24.17
2018-04-18T08:01:32.087Z,24.03
2018-04-18T08:03:59.572Z,23.83
2018-04-18T08:06:27.086Z,24.30
2018-04-18T08:08:54.564Z,22.20
2018-04-18T08:11:22.107Z,22.77
2018-04-18T08:13:49.598Z,24.27
2018-04-18T08:16:17.079Z,24.40
2018-04-18T08:18:44.622Z,24.20
2018-04-18T08:21:12.235Z,23.10
2018-04-18T08:23:39.728Z,23.20
2018-04-18T08:26:07.418Z,25.30
2018-04-18T08:28:34.941Z,21.30
2018-04-18T08:31:02.443Z,23.50
2018-04-18T08:33:29.951Z,23.30
2018-04-18T08:35:57.431Z,22.40
2018-04-18T08:38:24.917Z,21.77
2018-04-18T08:40:52.469Z,21.37
2018-04-18T08:43:19.933Z,21.60
2018-04-18T08:45:47.406Z,21.60
2018-04-18T08:48:14.953Z,20.70
2018-04-18T08:50:42.445Z,22.70
2018-04-18T08:53:09.933Z,24.30
2018-04-18T08:55:37.417Z,20.60
2018-04-18T08:58:04.887Z,23.70
2018-04-18T09:00:32.465Z,24.23
2018-04-18T09:02:59.961Z,22.87
2018-04-18T09:05:27.455Z,22.60
2018-04-18T09:07:54.936Z,21.27
2018-04-18T09:10:22.411Z,20.97
2018-04-18T09:12:49.875Z,21.40
2018-04-18T09:15:17.407Z,19.60
2018-04-18T09:17:44.894Z,16.40
2018-04-18T09:20:12.391Z,16.43
2018-04-18T09:22:39.903Z,16.67
2018-04-18T09:25:07.395Z,18.93
2018-04-18T09:27:34.872Z,18.70
2018-04-18T09:30:02.342Z,17.90
2018-04-18T09:32:29.890Z,19.60
2018-04-18T09:34:57.395Z,19.60
2018-04-18T09:37:24.930Z,23.10
2018-04-18T09:39:52.417Z,21.20
2018-04-18T09:42:19.921Z,22.60
2018-04-18T09:44:47.419Z,20.30
2018-04-18T09:47:14.931Z,20.70
2018-04-18T09:49:42.399Z,19.97
2018-04-18T09:52:09.965Z,19.70
2018-04-18T09:54:37.473Z,19.70
2018-04-18T09:57:04.963Z,19.70
2018-04-18T09:59:32.453Z,19.00
2018-04-18T10:02:05.521Z,20.33
2018-04-18T10:04:33.001Z,19.20
2018-04-18T10:07:00.535Z,19.40
2018-04-18T10:09:28.005Z,18.70
2018-04-18T10:11:55.479Z,16.97
2018-04-18T10:14:22.989Z,14.90
2018-04-18T10:16:50.502Z,18.37
2018-04-18T10:19:17.970Z,14.97
2018-04-18T10:21:45.522Z,17.70
2018-04-18T10:24:13.019Z,18.07
2018-04-18T10:26:40.577Z,16.47
2018-04-18T10:29:08.111Z,17.10
2018-04-18T10:31:35.718Z,18.50
2018-04-18T10:34:03.161Z,17.50
2018-04-18T10:36:30.829Z,17.50
2018-04-18T10:38:58.310Z,15.80
2018-04-18T10:41:25.795Z,13.70
2018-04-18T10:43:53.297Z,12.90
2018-04-18T10:46:20.818Z,13.23
2018-04-18T10:48:48.305Z,13.67
2018-04-18T10:51:15.781Z,12.70
2018-04-18T10:53:43.297Z,12.17
2018-04-18T10:56:10.831Z,11.13
2018-04-18T10:58:38.370Z,10.93
2018-04-18T11:01:05.812Z,10.23
2018-04-18T11:03:33.297Z,10.47
2018-04-18T11:06:00.822Z,11.67
2018-04-18T11:08:28.336Z,9.90
2018-04-18T11:10:55.801Z,10.27
2018-04-18T11:13:23.306Z,10.97
2018-04-18T11:15:50.781Z,9.90
2018-04-18T11:18:18.358Z,9.43
2018-04-18T11:20:45.839Z,9.60
2018-04-18T11:23:13.311Z,8.53
2018-04-18T11:25:40.823Z,9.67
2018-04-18T11:28:08.326Z,10.13
2018-04-18T11:30:35.801Z,9.47
2018-04-18T11:33:03.282Z,8.70
2018-04-18T11:35:30.774Z,10.73
2018-04-18T11:37:58.314Z,9.90
2018-04-18T11:40:25.790Z,8.77
2018-04-18T11:42:53.280Z,11.00
2018-04-18T11:45:20.782Z,8.97
2018-04-18T11:47:48.266Z,8.90
2018-04-18T11:50:15.750Z,9.60
2018-04-18T11:52:43.296Z,10.37
2018-04-18T11:55:10.779Z,10.43
2018-04-18T11:57:38.317Z,8.83
2018-04-18T12:00:05.817Z,8.50
2018-04-18T12:02:33.320Z,8.57
2018-04-18T12:05:00.782Z,8.87
2018-04-18T12:07:28.310Z,8.33
2018-04-18T12:09:55.823Z,7.43
2018-04-18T12:12:23.293Z,8.70
2018-04-18T12:14:50.812Z,8.17
2018-04-18T12:17:18.283Z,8.80
2018-04-18T12:19:45.739Z,8.77
2018-04-18T12:22:13.293Z,11.00
2018-04-18T12:24:40.764Z,10.57
2018-04-18T12:27:08.236Z,10.37
2018-04-18T12:29:35.768Z,9.23
2018-04-18T12:32:03.235Z,9.50
2018-04-18T12:34:30.840Z,8.90
2018-04-18T12:36:58.365Z,7.40
2018-04-18T12:39:25.827Z,6.03
2018-04-18T12:41:53.303Z,6.43
2018-04-18T12:44:20.775Z,6.53
2018-04-18T12:46:48.268Z,6.20
2018-04-18T12:49:15.734Z,5.90
2018-04-18T12:51:43.232Z,4.90
2018-04-18T12:54:10.723Z,6.30
2018-04-18T12:56:38.206Z,7.13
2018-04-18T12:59:05.723Z,6.13
2018-04-18T13:01:33.231Z,5.80
2018-04-18T13:04:00.779Z,5.87
2018-04-18T13:06:28.301Z,5.27
2018-04-18T13:08:55.751Z,5.30
2018-04-18T13:11:23.248Z,6.00
2018-04-18T13:13:51.491Z,5.67
2018-04-18T13:16:18.965Z,5.60
2018-04-18T13:18:46.451Z,5.67
2018-04-18T13:21:13.913Z,5.90
2018-04-18T13:23:41.419Z,4.90
2018-04-18T13:26:08.923Z,5.40
2018-04-18T13:28:36.444Z,5.40
2018-04-18T13:31:03.920Z,5.10
2018-04-18T13:33:31.819Z,4.87
2018-04-18T13:35:59.354Z,5.90
2018-04-18T13:38:26.816Z,6.80
2018-04-18T13:40:54.343Z,5.80
2018-04-18T13:43:21.823Z,5.43
2018-04-18T13:45:49.924Z,5.70
2018-04-18T13:48:17.452Z,5.40
2018-04-18T13:50:44.952Z,5.13
2018-04-18T13:53:12.474Z,5.00
2018-04-18T13:55:39.981Z,4.90
2018-04-18T13:58:07.448Z,4.37
2018-04-18T14:00:34.945Z,5.40
2018-04-18T14:03:02.418Z,5.87
2018-04-18T14:05:29.979Z,5.30
2018-04-18T14:07:57.455Z,5.27
2018-04-18T14:10:24.920Z,5.33
2018-04-18T14:12:52.427Z,5.10
2018-04-18T14:15:21.484Z,5.30
2018-04-18T14:17:49.021Z,5.80
2018-04-18T14:20:16.494Z,6.60
2018-04-18T14:22:43.982Z,5.70
2018-04-18T14:25:11.466Z,4.40
2018-04-18T14:27:39.006Z,5.10
2018-04-18T14:30:06.469Z,4.03
2018-04-18T14:32:35.155Z,4.00
2018-04-18T14:35:02.644Z,5.60
2018-04-18T14:37:30.126Z,5.40
2018-04-18T14:39:57.651Z,4.90
2018-04-18T14:42:25.152Z,5.03
2018-04-18T14:44:52.634Z,5.33
2018-04-18T14:47:20.124Z,4.80
2018-04-18T14:49:47.585Z,4.33
2018-04-18T14:52:15.107Z,4.30
2018-04-18T14:54:42.607Z,4.70
2018-04-18T14:57:10.123Z,4.40
2018-04-18T14:59:37.624Z,4.87
2018-04-18T15:02:05.143Z,4.40
2018-04-18T15:04:32.643Z,4.33
2018-04-18T15:07:00.155Z,4.27
2018-04-18T15:09:27.627Z,5.20
2018-04-18T15:11:55.145Z,4.70
2018-04-18T15:14:22.636Z,4.50
2018-04-18T15:16:50.283Z,4.63
2018-04-18T15:19:17.765Z,4.73
2018-04-18T15:21:45.301Z,5.00
2018-04-18T15:24:12.819Z,4.53
2018-04-18T15:26:40.349Z,4.53
2018-04-18T15:29:07.819Z,4.17
2018-04-18T15:31:35.305Z,5.10
2018-04-18T15:34:02.856Z,4.37
2018-04-18T15:36:30.928Z,4.03
2018-04-18T15:38:58.375Z,3.60
2018-04-18T15:41:25.892Z,4.83
2018-04-18T15:43:53.354Z,5.10
2018-04-18T15:46:20.865Z,4.33
2018-04-18T15:48:48.375Z,4.37
2018-04-18T15:51:15.962Z,4.20
2018-04-18T15:53:43.492Z,3.47
2018-04-18T15:56:11.040Z,4.00
2018-04-18T15:58:38.540Z,4.50
2018-04-18T16:01:06.070Z,4.67
2018-04-18T16:03:33.529Z,4.77
2018-04-18T16:06:01.040Z,4.77
2018-04-18T16:08:28.567Z,5.80
2018-04-18T16:10:56.059Z,4.60
2018-04-18T16:13:23.796Z,3.60
2018-04-18T16:15:51.309Z,4.77
2018-04-18T16:18:18.896Z,4.70
2018-04-18T16:20:46.411Z,4.80
2018-04-18T16:23:13.869Z,4.57
2018-04-18T16:25:41.561Z,5.60
2018-04-18T16:28:09.013Z,5.23
2018-04-18T16:30:40.969Z,4.80
2018-04-18T16:33:09.563Z,5.50
2018-04-18T16:35:37.022Z,5.00
2018-04-18T16:38:04.649Z,4.63
2018-04-18T16:40:32.351Z,4.90
2018-04-18T16:42:59.837Z,4.97
2018-04-18T16:45:27.347Z,5.10
2018-04-18T16:47:54.846Z,4.43
2018-04-18T16:50:22.324Z,4.97
2018-04-18T16:52:49.843Z,4.80
2018-04-18T16:55:17.368Z,4.90
2018-04-18T16:57:44.862Z,4.83
2018-04-18T17:00:12.348Z,5.00
2018-04-18T17:02:39.912Z,5.80
2018-04-18T17:05:07.362Z,4.57
2018-04-18T17:07:34.841Z,5.70
2018-04-18T17:10:02.357Z,4.87
2018-04-18T17:15:03.710Z,5.07
2018-04-18T17:17:31.265Z,5.70
2018-04-18T17:19:58.743Z,5.20
2018-04-18T17:22:26.499Z,5.20
2018-04-18T17:24:53.972Z,5.37
2018-04-18T17:27:21.491Z,5.60
2018-04-18T17:29:48.978Z,5.40
2018-04-18T17:32:16.482Z,5.50
2018-04-18T17:34:44.619Z,5.23
2018-04-18T17:37:12.210Z,5.40
2018-04-18T17:39:39.813Z,5.57
2018-04-18T17:42:07.456Z,5.20
2018-04-18T17:44:35.826Z,5.63
2018-04-18T17:47:03.332Z,6.10
2018-04-18T17:49:30.823Z,7.03
2018-04-18T17:51:58.389Z,5.77
2018-04-18T17:54:25.882Z,5.57
2018-04-18T17:56:53.378Z,5.60
2018-04-18T17:59:20.928Z,5.90
2018-04-18T18:01:48.422Z,5.70
2018-04-18T18:04:15.964Z,6.30
2018-04-18T18:06:43.447Z,6.03
2018-04-18T18:09:10.915Z,5.83
2018-04-18T18:11:38.550Z,5.90
2018-04-18T18:14:06.016Z,6.33
2018-04-18T18:16:33.501Z,7.00
2018-04-18T18:19:01.070Z,6.27
2018-04-18T18:21:28.598Z,6.13
2018-04-18T18:23:56.087Z,6.50
2018-04-18T18:26:23.647Z,6.30
2018-04-18T18:28:51.127Z,5.97
2018-04-18T18:31:18.657Z,7.37
2018-04-18T18:33:46.159Z,7.17
2018-04-18T18:36:13.709Z,7.27
2018-04-18T18:38:41.208Z,7.40
2018-04-18T18:41:08.760Z,8.70
2018-04-18T18:43:36.293Z,8.90
2018-04-18T18:46:03.775Z,8.50
2018-04-18T18:48:31.374Z,9.03
2018-04-18T18:50:58.945Z,8.70
2018-04-18T18:53:26.442Z,8.83
2018-04-18T18:55:54.540Z,10.37
2018-04-18T18:58:22.034Z,9.27
2018-04-18T19:00:49.502Z,8.53
2018-04-18T19:03:16.991Z,8.90
2018-04-18T19:05:44.479Z,8.20
2018-04-18T19:08:11.992Z,9.57
2018-04-18T19:10:39.506Z,8.13
2018-04-18T19:13:07.050Z,9.60
2018-04-18T19:15:34.583Z,8.90
2018-04-18T19:18:02.075Z,9.57
2018-04-18T19:20:29.552Z,8.97
2018-04-18T19:22:57.074Z,10.03
2018-04-18T19:25:24.575Z,8.77
2018-04-18T19:27:52.069Z,10.20
2018-04-18T19:30:19.621Z,12.67
2018-04-18T19:32:47.153Z,10.97
2018-04-18T19:35:14.830Z,10.88
2018-04-18T19:37:42.539Z,11.63
2018-04-18T19:40:10.068Z,12.07
2018-04-18T19:42:38.017Z,11.90
2018-04-18T19:45:06.963Z,11.27
2018-04-18T19:47:34.657Z,11.80
2018-04-18T19:50:02.333Z,11.73
2018-04-18T19:52:30.757Z,12.10
2018-04-18T19:54:58.353Z,12.13
2018-04-18T19:57:26.096Z,12.53
2018-04-18T19:59:53.777Z,13.70
2018-04-18T20:02:21.418Z,12.30
2018-04-18T20:04:49.182Z,12.13
2018-04-18T20:07:16.787Z,10.53
2018-04-18T20:09:44.404Z,10.43
2018-04-18T20:12:12.024Z,12.00
2018-04-18T20:14:41.006Z,9.90
2018-04-18T20:17:08.642Z,10.80
2018-04-18T20:19:36.388Z,10.70
2018-04-18T20:22:04.144Z,10.23
2018-04-18T20:24:31.668Z,13.57
2018-04-18T20:27:03.022Z,10.90
2018-04-18T20:29:31.848Z,10.27
2018-04-18T20:32:00.347Z,11.90
2018-04-18T20:34:27.990Z,11.47
2018-04-18T20:36:55.538Z,11.77
2018-04-18T20:39:23.112Z,11.57
2018-04-18T20:41:54.691Z,11.53
2018-04-18T20:44:22.327Z,12.03
2018-04-18T20:46:53.267Z,11.80
2018-04-18T20:49:20.971Z,12.10
2018-04-18T20:51:48.633Z,11.67
2018-04-18T20:54:16.268Z,11.17
2018-04-18T20:56:44.399Z,11.60
2018-04-18T20:59:11.900Z,11.07
2018-04-18T21:01:39.515Z,11.60
2018-04-18T21:04:07.128Z,13.97
2018-04-18T21:06:34.767Z,12.70
2018-04-18T21:09:02.439Z,12.50
2018-04-18T21:11:35.539Z,12.13
2018-04-18T21:14:03.204Z,12.73
2018-04-18T21:16:31.774Z,11.13
2018-04-18T21:18:59.418Z,12.40
2018-04-18T21:21:26.998Z,12.63
2018-04-18T21:23:54.712Z,11.93
2018-04-18T21:26:22.476Z,12.13
2018-04-18T21:28:50.010Z,11.07
2018-04-18T21:31:17.563Z,12.20
2018-04-18T21:33:45.143Z,12.03
2018-04-18T21:36:12.655Z,11.90
2018-04-18T21:38:40.188Z,13.40
2018-04-18T21:41:07.971Z,11.90
2018-04-18T21:43:35.557Z,11.63
2018-04-18T21:46:03.046Z,11.33
2018-04-18T21:48:31.497Z,12.20
2018-04-18T21:50:59.134Z,11.33
2018-04-18T21:53:26.629Z,12.23
2018-04-18T21:55:54.123Z,10.83
2018-04-18T21:58:21.633Z,10.47
2018-04-18T22:00:49.123Z,10.27
2018-04-18T22:03:16.615Z,10.57
2018-04-18T22:05:44.135Z,8.80
2018-04-18T22:08:11.616Z,10.30
2018-04-18T22:10:39.132Z,9.80
2018-04-18T22:13:06.645Z,9.20
2018-04-18T22:15:36.014Z,9.30
2018-04-18T22:18:04.820Z,9.30
2018-04-18T22:20:33.515Z,9.00
2018-04-18T22:23:01.040Z,9.43
2018-04-18T22:25:28.810Z,8.60
2018-04-18T22:27:56.314Z,9.23
2018-04-18T22:30:23.844Z,10.10
2018-04-18T22:32:51.369Z,8.47
2018-04-18T22:35:18.959Z,9.23
2018-04-18T22:37:46.503Z,9.20
2018-04-18T22:40:13.971Z,8.83
2018-04-18T22:42:41.460Z,9.27
2018-04-18T22:45:08.962Z,8.90
2018-04-18T22:47:36.446Z,8.80
2018-04-18T22:50:04.832Z,9.23
2018-04-18T22:52:32.390Z,9.47
2018-04-18T22:55:00.327Z,9.27
2018-04-18T22:57:27.825Z,9.27
2018-04-18T22:59:55.352Z,9.03
2018-04-18T23:02:22.828Z,8.83
2018-04-18T23:04:50.422Z,8.70
2018-04-18T23:07:17.956Z,11.00
2018-04-18T23:09:45.463Z,8.40
2018-04-18T23:12:13.264Z,8.80
2018-04-18T23:14:40.744Z,8.83
2018-04-18T23:17:08.584Z,9.13
2018-04-18T23:19:36.219Z,10.13
2018-04-18T23:22:04.492Z,8.63
2018-04-18T23:24:32.565Z,9.70
2018-04-18T23:27:00.104Z,10.57
2018-04-18T23:29:27.779Z,10.30
2018-04-18T23:31:55.297Z,10.40
2018-04-18T23:34:22.764Z,9.17
2018-04-18T23:36:50.250Z,9.57
2018-04-18T23:39:17.795Z,8.90
2018-04-18T23:41:45.285Z,10.40
2018-04-18T23:44:12.848Z,9.60
2018-04-18T23:46:40.332Z,10.20
2018-04-18T23:49:07.802Z,11.00
2018-04-18T23:51:35.328Z,11.10
2018-04-18T23:54:02.814Z,10.20
2018-04-18T23:56:30.870Z,9.53
2018-04-18T23:58:58.347Z,9.10
